sensor_id;sensor_type;location;lat;lon;timestamp;temperature;humidity
29729;DHT22;20055;51.498;11.960;2023-07-16T00:00:11;22.10;99.90
29729;DHT22;20055;51.498;11.960;2023-07-16T00:02:38;22.20;99.90
29729;DHT22;20055;51.498;11.960;2023-07-16T00:05:04;22.20;99.90
29729;DHT22;20055;51.498;11.960;2023-07-16T00:07:31;22.10;99.90
29729;DHT22;20055;51.498;11.960;2023-07-16T00:09:58;22.00;99.90
29729;DHT22;20055;51.498;11.960;2023-07-16T00:12:24;22.00;99.90
29729;DHT22;20055;51.498;11.960;2023-07-16T00:14:50;21.90;99.90
29729;DHT22;20055;51.498;11.960;2023-07-16T00:17:17;21.80;99.90
29729;DHT22;20055;51.498;11.960;2023-07-16T00:19:43;21.70;99.90
29729;DHT22;20055;51.498;11.960;2023-07-16T00:22:09;21.60;99.90
29729;DHT22;20055;51.498;11.960;2023-07-16T00:24:36;21.70;99.90
29729;DHT22;20055;51.498;11.960;2023-07-16T00:27:02;21.70;99.90
29729;DHT22;20055;51.498;11.960;2023-07-16T00:29:31;21.60;99.90
29729;DHT22;20055;51.498;11.960;2023-07-16T00:31:57;21.50;99.90
29729;DHT22;20055;51.498;11.960;2023-07-16T00:34:24;21.50;99.90
29729;DHT22;20055;51.498;11.960;2023-07-16T00:36:50;21.50;99.90
29729;DHT22;20055;51.498;11.960;2023-07-16T00:39:16;21.40;99.90
29729;DHT22;20055;51.498;11.960;2023-07-16T00:41:43;21.30;99.90
29729;DHT22;20055;51.498;11.960;2023-07-16T00:44:10;21.20;99.90
29729;DHT22;20055;51.498;11.960;2023-07-16T00:46:37;21.20;99.90
29729;DHT22;20055;51.498;11.960;2023-07-16T00:49:04;21.20;99.90
29729;DHT22;20055;51.498;11.960;2023-07-16T00:51:30;21.10;99.90
29729;DHT22;20055;51.498;11.960;2023-07-16T00:53:57;21.10;99.90
29729;DHT22;20055;51.498;11.960;2023-07-16T00:56:23;21.00;99.90
29729;DHT22;20055;51.498;11.960;2023-07-16T00:58:49;21.00;99.90
29729;DHT22;20055;51.498;11.960;2023-07-16T01:01:16;21.00;99.90
29729;DHT22;20055;51.498;11.960;2023-07-16T01:03:42;21.00;99.90
29729;DHT22;20055;51.498;11.960;2023-07-16T01:06:20;21.00;99.90
29729;DHT22;20055;51.498;11.960;2023-07-16T01:09:19;20.90;99.90
29729;DHT22;20055;51.498;11.960;2023-07-16T01:11:45;20.90;99.90
29729;DHT22;20055;51.498;11.960;2023-07-16T01:14:13;20.90;99.90
29729;DHT22;20055;51.498;11.960;2023-07-16T01:16:41;20.90;99.90
29729;DHT22;20055;51.498;11.960;2023-07-16T01:19:07;20.90;99.90
29729;DHT22;20055;51.498;11.960;2023-07-16T01:30:20;20.80;99.90
29729;DHT22;20055;51.498;11.960;2023-07-16T01:32:48;20.80;99.90
29729;DHT22;20055;51.498;11.960;2023-07-16T01:35:14;20.80;99.90
29729;DHT22;20055;51.498;11.960;2023-07-16T01:37:41;20.80;99.90
29729;DHT22;20055;51.498;11.960;2023-07-16T01:40:08;20.60;99.90
29729;DHT22;20055;51.498;11.960;2023-07-16T01:42:35;20.60;99.90
29729;DHT22;20055;51.498;11.960;2023-07-16T01:45:03;20.60;99.90
29729;DHT22;20055;51.498;11.960;2023-07-16T01:47:39;20.60;99.90
29729;DHT22;20055;51.498;11.960;2023-07-16T01:50:06;20.40;99.90
29729;DHT22;20055;51.498;11.960;2023-07-16T01:52:33;20.50;99.90
29729;DHT22;20055;51.498;11.960;2023-07-16T01:54:59;20.50;99.90
29729;DHT22;20055;51.498;11.960;2023-07-16T01:57:25;20.40;99.90
29729;DHT22;20055;51.498;11.960;2023-07-16T01:59:52;20.50;99.90
29729;DHT22;20055;51.498;11.960;2023-07-16T02:02:18;20.40;99.90
29729;DHT22;20055;51.498;11.960;2023-07-16T02:04:45;20.40;99.90
29729;DHT22;20055;51.498;11.960;2023-07-16T02:07:11;20.50;99.90
29729;DHT22;20055;51.498;11.960;2023-07-16T02:09:37;20.60;99.90
29729;DHT22;20055;51.498;11.960;2023-07-16T02:12:04;20.60;99.90
29729;DHT22;20055;51.498;11.960;2023-07-16T02:14:30;20.50;99.90
29729;DHT22;20055;51.498;11.960;2023-07-16T02:16:57;20.60;99.90
29729;DHT22;20055;51.498;11.960;2023-07-16T02:19:25;20.50;99.90
29729;DHT22;20055;51.498;11.960;2023-07-16T02:21:52;20.50;99.90
29729;DHT22;20055;51.498;11.960;2023-07-16T02:24:18;20.50;99.90
29729;DHT22;20055;51.498;11.960;2023-07-16T02:26:44;20.50;99.90
29729;DHT22;20055;51.498;11.960;2023-07-16T02:29:11;20.60;99.90
29729;DHT22;20055;51.498;11.960;2023-07-16T02:31:38;20.60;99.90
29729;DHT22;20055;51.498;11.960;2023-07-16T02:34:04;20.60;99.90
29729;DHT22;20055;51.498;11.960;2023-07-16T02:36:33;20.60;99.90
29729;DHT22;20055;51.498;11.960;2023-07-16T02:38:59;20.60;99.90
29729;DHT22;20055;51.498;11.960;2023-07-16T02:41:25;20.70;99.90
29729;DHT22;20055;51.498;11.960;2023-07-16T02:43:59;20.70;99.90
29729;DHT22;20055;51.498;11.960;2023-07-16T02:46:26;20.70;99.90
29729;DHT22;20055;51.498;11.960;2023-07-16T02:48:55;20.80;99.90
29729;DHT22;20055;51.498;11.960;2023-07-16T02:51:21;20.70;99.90
29729;DHT22;20055;51.498;11.960;2023-07-16T02:53:47;20.80;99.90
29729;DHT22;20055;51.498;11.960;2023-07-16T02:56:13;20.70;99.90
29729;DHT22;20055;51.498;11.960;2023-07-16T02:58:40;20.60;99.90
29729;DHT22;20055;51.498;11.960;2023-07-16T03:01:06;20.60;99.90
29729;DHT22;20055;51.498;11.960;2023-07-16T03:03:33;20.70;99.90
29729;DHT22;20055;51.498;11.960;2023-07-16T03:05:59;20.70;99.90
29729;DHT22;20055;51.498;11.960;2023-07-16T03:08:25;20.70;99.90
29729;DHT22;20055;51.498;11.960;2023-07-16T03:10:56;20.80;99.90
29729;DHT22;20055;51.498;11.960;2023-07-16T03:13:23;20.70;99.90
29729;DHT22;20055;51.498;11.960;2023-07-16T03:15:49;20.50;99.90
29729;DHT22;20055;51.498;11.960;2023-07-16T03:18:18;20.50;99.90
29729;DHT22;20055;51.498;11.960;2023-07-16T03:20:45;20.60;99.90
29729;DHT22;20055;51.498;11.960;2023-07-16T03:23:11;20.60;99.90
29729;DHT22;20055;51.498;11.960;2023-07-16T03:25:38;20.60;99.90
29729;DHT22;20055;51.498;11.960;2023-07-16T03:28:04;20.50;99.90
29729;DHT22;20055;51.498;11.960;2023-07-16T03:30:31;20.50;99.90
29729;DHT22;20055;51.498;11.960;2023-07-16T03:32:57;20.60;99.90
29729;DHT22;20055;51.498;11.960;2023-07-16T03:35:25;20.60;99.90
29729;DHT22;20055;51.498;11.960;2023-07-16T03:37:52;20.60;99.90
29729;DHT22;20055;51.498;11.960;2023-07-16T03:40:24;20.60;99.90
29729;DHT22;20055;51.498;11.960;2023-07-16T03:42:51;20.60;99.90
29729;DHT22;20055;51.498;11.960;2023-07-16T03:45:18;20.60;99.90
29729;DHT22;20055;51.498;11.960;2023-07-16T03:47:45;20.60;99.90
29729;DHT22;20055;51.498;11.960;2023-07-16T03:50:12;20.60;99.90
29729;DHT22;20055;51.498;11.960;2023-07-16T03:52:38;20.60;99.90
29729;DHT22;20055;51.498;11.960;2023-07-16T03:55:05;20.60;99.90
29729;DHT22;20055;51.498;11.960;2023-07-16T03:57:31;20.50;99.90
29729;DHT22;20055;51.498;11.960;2023-07-16T03:59:57;20.60;99.90
29729;DHT22;20055;51.498;11.960;2023-07-16T04:02:24;20.60;99.90
29729;DHT22;20055;51.498;11.960;2023-07-16T04:04:51;20.50;99.90
29729;DHT22;20055;51.498;11.960;2023-07-16T04:07:17;20.60;99.90
29729;DHT22;20055;51.498;11.960;2023-07-16T04:09:44;20.60;99.90
29729;DHT22;20055;51.498;11.960;2023-07-16T04:12:10;20.70;99.90
29729;DHT22;20055;51.498;11.960;2023-07-16T04:14:36;20.70;99.90
29729;DHT22;20055;51.498;11.960;2023-07-16T04:17:02;20.70;99.90
29729;DHT22;20055;51.498;11.960;2023-07-16T04:19:30;20.80;99.90
29729;DHT22;20055;51.498;11.960;2023-07-16T04:21:56;20.90;99.90
29729;DHT22;20055;51.498;11.960;2023-07-16T04:24:22;21.00;99.90
29729;DHT22;20055;51.498;11.960;2023-07-16T04:26:49;21.30;99.90
29729;DHT22;20055;51.498;11.960;2023-07-16T04:29:16;21.50;99.90
29729;DHT22;20055;51.498;11.960;2023-07-16T04:31:42;21.50;99.90
29729;DHT22;20055;51.498;11.960;2023-07-16T04:34:08;21.40;99.90
29729;DHT22;20055;51.498;11.960;2023-07-16T04:36:34;21.40;99.90
29729;DHT22;20055;51.498;11.960;2023-07-16T04:39:00;21.40;99.90
29729;DHT22;20055;51.498;11.960;2023-07-16T04:41:27;21.50;99.90
29729;DHT22;20055;51.498;11.960;2023-07-16T04:43:53;21.40;99.90
29729;DHT22;20055;51.498;11.960;2023-07-16T04:46:20;21.40;99.90
29729;DHT22;20055;51.498;11.960;2023-07-16T04:48:46;21.50;99.90
29729;DHT22;20055;51.498;11.960;2023-07-16T04:51:12;21.60;99.90
29729;DHT22;20055;51.498;11.960;2023-07-16T04:53:38;21.70;99.90
29729;DHT22;20055;51.498;11.960;2023-07-16T04:56:10;21.80;99.90
29729;DHT22;20055;51.498;11.960;2023-07-16T04:58:38;22.00;99.90
29729;DHT22;20055;51.498;11.960;2023-07-16T05:01:04;22.20;99.90
29729;DHT22;20055;51.498;11.960;2023-07-16T05:03:31;22.10;99.90
29729;DHT22;20055;51.498;11.960;2023-07-16T05:05:57;22.00;99.90
29729;DHT22;20055;51.498;11.960;2023-07-16T05:08:23;22.00;99.90
29729;DHT22;20055;51.498;11.960;2023-07-16T05:10:50;21.90;99.90
29729;DHT22;20055;51.498;11.960;2023-07-16T05:13:16;22.00;99.90
29729;DHT22;20055;51.498;11.960;2023-07-16T05:15:44;22.10;99.90
29729;DHT22;20055;51.498;11.960;2023-07-16T05:18:10;22.00;99.90
29729;DHT22;20055;51.498;11.960;2023-07-16T05:20:37;22.00;99.90
29729;DHT22;20055;51.498;11.960;2023-07-16T05:23:03;22.00;99.90
29729;DHT22;20055;51.498;11.960;2023-07-16T05:25:29;22.10;99.90
29729;DHT22;20055;51.498;11.960;2023-07-16T05:27:56;22.20;99.90
29729;DHT22;20055;51.498;11.960;2023-07-16T05:30:22;22.60;99.90
29729;DHT22;20055;51.498;11.960;2023-07-16T05:32:48;23.20;99.90
29729;DHT22;20055;51.498;11.960;2023-07-16T05:35:15;23.90;99.90
29729;DHT22;20055;51.498;11.960;2023-07-16T05:37:41;24.20;99.90
29729;DHT22;20055;51.498;11.960;2023-07-16T05:40:07;24.00;99.90
29729;DHT22;20055;51.498;11.960;2023-07-16T05:42:37;24.00;99.90
29729;DHT22;20055;51.498;11.960;2023-07-16T05:45:03;24.40;99.90
29729;DHT22;20055;51.498;11.960;2023-07-16T05:47:30;24.70;99.90
29729;DHT22;20055;51.498;11.960;2023-07-16T05:49:56;24.70;99.90
29729;DHT22;20055;51.498;11.960;2023-07-16T05:52:23;24.80;99.90
29729;DHT22;20055;51.498;11.960;2023-07-16T05:54:49;24.60;99.90
29729;DHT22;20055;51.498;11.960;2023-07-16T05:57:15;24.30;99.90
29729;DHT22;20055;51.498;11.960;2023-07-16T05:59:41;24.10;99.90
29729;DHT22;20055;51.498;11.960;2023-07-16T06:02:08;24.00;99.90
29729;DHT22;20055;51.498;11.960;2023-07-16T06:04:34;23.90;99.90
29729;DHT22;20055;51.498;11.960;2023-07-16T06:07:00;23.70;99.90
29729;DHT22;20055;51.498;11.960;2023-07-16T06:09:26;23.60;99.90
29729;DHT22;20055;51.498;11.960;2023-07-16T06:11:52;23.50;99.90
29729;DHT22;20055;51.498;11.960;2023-07-16T06:14:19;23.40;99.90
29729;DHT22;20055;51.498;11.960;2023-07-16T06:16:45;23.20;99.90
29729;DHT22;20055;51.498;11.960;2023-07-16T06:19:11;23.20;99.90
29729;DHT22;20055;51.498;11.960;2023-07-16T06:21:37;23.20;99.90
29729;DHT22;20055;51.498;11.960;2023-07-16T06:24:04;23.30;99.90
29729;DHT22;20055;51.498;11.960;2023-07-16T06:26:30;23.40;99.90
29729;DHT22;20055;51.498;11.960;2023-07-16T06:28:56;23.40;99.90
29729;DHT22;20055;51.498;11.960;2023-07-16T06:31:23;23.40;99.90
29729;DHT22;20055;51.498;11.960;2023-07-16T06:33:49;23.30;99.90
29729;DHT22;20055;51.498;11.960;2023-07-16T06:36:16;23.30;99.90
29729;DHT22;20055;51.498;11.960;2023-07-16T06:38:43;23.30;99.90
29729;DHT22;20055;51.498;11.960;2023-07-16T06:41:09;23.30;99.90
29729;DHT22;20055;51.498;11.960;2023-07-16T06:43:35;23.20;99.90
29729;DHT22;20055;51.498;11.960;2023-07-16T06:46:01;23.30;99.90
29729;DHT22;20055;51.498;11.960;2023-07-16T06:48:28;23.40;99.90
29729;DHT22;20055;51.498;11.960;2023-07-16T06:50:54;23.40;99.90
29729;DHT22;20055;51.498;11.960;2023-07-16T06:53:21;23.50;99.90
29729;DHT22;20055;51.498;11.960;2023-07-16T06:55:48;23.50;99.90
29729;DHT22;20055;51.498;11.960;2023-07-16T06:58:15;23.50;99.90
29729;DHT22;20055;51.498;11.960;2023-07-16T07:00:41;23.70;99.90
29729;DHT22;20055;51.498;11.960;2023-07-16T07:03:07;23.80;99.90
29729;DHT22;20055;51.498;11.960;2023-07-16T07:05:33;23.90;99.90
29729;DHT22;20055;51.498;11.960;2023-07-16T07:08:02;23.90;99.90
29729;DHT22;20055;51.498;11.960;2023-07-16T07:10:29;23.80;99.90
29729;DHT22;20055;51.498;11.960;2023-07-16T07:12:55;23.80;99.90
29729;DHT22;20055;51.498;11.960;2023-07-16T07:15:21;23.80;99.90
29729;DHT22;20055;51.498;11.960;2023-07-16T07:17:47;23.60;99.90
29729;DHT22;20055;51.498;11.960;2023-07-16T07:20:14;23.60;99.90
29729;DHT22;20055;51.498;11.960;2023-07-16T07:22:41;23.70;99.90
29729;DHT22;20055;51.498;11.960;2023-07-16T07:25:07;23.80;99.90
29729;DHT22;20055;51.498;11.960;2023-07-16T07:27:33;24.00;99.90
29729;DHT22;20055;51.498;11.960;2023-07-16T07:30:00;24.10;99.90
29729;DHT22;20055;51.498;11.960;2023-07-16T07:32:26;24.30;99.90
29729;DHT22;20055;51.498;11.960;2023-07-16T07:34:52;24.50;99.90
29729;DHT22;20055;51.498;11.960;2023-07-16T07:37:18;24.60;99.90
29729;DHT22;20055;51.498;11.960;2023-07-16T07:39:45;24.70;99.90
29729;DHT22;20055;51.498;11.960;2023-07-16T07:42:13;24.60;99.90
29729;DHT22;20055;51.498;11.960;2023-07-16T07:44:40;24.60;99.90
29729;DHT22;20055;51.498;11.960;2023-07-16T07:47:06;24.70;99.90
29729;DHT22;20055;51.498;11.960;2023-07-16T07:49:34;24.80;99.90
29729;DHT22;20055;51.498;11.960;2023-07-16T07:52:01;24.70;99.90
29729;DHT22;20055;51.498;11.960;2023-07-16T07:54:27;24.60;99.90
29729;DHT22;20055;51.498;11.960;2023-07-16T07:56:53;24.50;99.90
29729;DHT22;20055;51.498;11.960;2023-07-16T07:59:19;24.60;99.90
29729;DHT22;20055;51.498;11.960;2023-07-16T08:01:46;24.80;99.90
29729;DHT22;20055;51.498;11.960;2023-07-16T08:04:12;24.70;99.90
29729;DHT22;20055;51.498;11.960;2023-07-16T08:06:38;24.70;99.90
29729;DHT22;20055;51.498;11.960;2023-07-16T08:09:05;24.60;99.90
29729;DHT22;20055;51.498;11.960;2023-07-16T08:11:31;24.50;99.90
29729;DHT22;20055;51.498;11.960;2023-07-16T08:13:57;24.60;99.90
29729;DHT22;20055;51.498;11.960;2023-07-16T08:16:23;24.70;99.90
29729;DHT22;20055;51.498;11.960;2023-07-16T08:18:50;24.70;99.90
29729;DHT22;20055;51.498;11.960;2023-07-16T08:21:16;24.50;99.90
29729;DHT22;20055;51.498;11.960;2023-07-16T08:23:50;24.60;99.90
29729;DHT22;20055;51.498;11.960;2023-07-16T08:26:16;24.80;99.90
29729;DHT22;20055;51.498;11.960;2023-07-16T08:28:43;24.90;99.90
29729;DHT22;20055;51.498;11.960;2023-07-16T08:31:11;25.20;99.70
29729;DHT22;20055;51.498;11.960;2023-07-16T08:33:37;25.30;99.80
29729;DHT22;20055;51.498;11.960;2023-07-16T08:36:04;25.20;99.00
29729;DHT22;20055;51.498;11.960;2023-07-16T08:38:30;25.30;97.10
29729;DHT22;20055;51.498;11.960;2023-07-16T08:40:56;25.40;97.70
29729;DHT22;20055;51.498;11.960;2023-07-16T08:43:23;25.40;96.80
29729;DHT22;20055;51.498;11.960;2023-07-16T08:45:50;25.40;96.50
29729;DHT22;20055;51.498;11.960;2023-07-16T08:48:17;25.60;96.10
29729;DHT22;20055;51.498;11.960;2023-07-16T08:50:49;25.50;96.40
29729;DHT22;20055;51.498;11.960;2023-07-16T08:53:16;25.40;95.80
29729;DHT22;20055;51.498;11.960;2023-07-16T08:55:46;25.40;96.10
29729;DHT22;20055;51.498;11.960;2023-07-16T08:58:17;25.70;95.80
29729;DHT22;20055;51.498;11.960;2023-07-16T09:00:44;25.80;95.70
29729;DHT22;20055;51.498;11.960;2023-07-16T09:03:12;26.00;94.70
29729;DHT22;20055;51.498;11.960;2023-07-16T09:05:40;25.90;94.80
29729;DHT22;20055;51.498;11.960;2023-07-16T09:08:06;25.90;95.00
29729;DHT22;20055;51.498;11.960;2023-07-16T09:10:33;25.90;93.80
29729;DHT22;20055;51.498;11.960;2023-07-16T09:13:00;25.90;94.30
29729;DHT22;20055;51.498;11.960;2023-07-16T09:15:28;25.90;94.60
29729;DHT22;20055;51.498;11.960;2023-07-16T09:17:55;25.80;94.60
29729;DHT22;20055;51.498;11.960;2023-07-16T09:20:22;25.40;95.20
29729;DHT22;20055;51.498;11.960;2023-07-16T09:22:54;25.50;95.00
29729;DHT22;20055;51.498;11.960;2023-07-16T09:25:28;25.50;95.10
29729;DHT22;20055;51.498;11.960;2023-07-16T09:27:54;25.30;96.00
29729;DHT22;20055;51.498;11.960;2023-07-16T09:30:21;25.30;94.80
29729;DHT22;20055;51.498;11.960;2023-07-16T09:32:47;25.50;95.60
29729;DHT22;20055;51.498;11.960;2023-07-16T09:35:14;25.40;94.10
29729;DHT22;20055;51.498;11.960;2023-07-16T09:37:42;25.40;94.10
29729;DHT22;20055;51.498;11.960;2023-07-16T09:40:10;25.50;93.10
29729;DHT22;20055;51.498;11.960;2023-07-16T09:42:39;25.50;93.60
29729;DHT22;20055;51.498;11.960;2023-07-16T09:45:06;25.50;93.90
29729;DHT22;20055;51.498;11.960;2023-07-16T09:47:34;25.40;92.90
29729;DHT22;20055;51.498;11.960;2023-07-16T09:50:02;25.50;93.30
29729;DHT22;20055;51.498;11.960;2023-07-16T09:52:32;25.50;92.60
29729;DHT22;20055;51.498;11.960;2023-07-16T09:55:02;25.70;91.70
29729;DHT22;20055;51.498;11.960;2023-07-16T09:57:35;25.90;91.30
29729;DHT22;20055;51.498;11.960;2023-07-16T10:00:06;26.10;91.60
29729;DHT22;20055;51.498;11.960;2023-07-16T10:02:39;26.00;92.80
29729;DHT22;20055;51.498;11.960;2023-07-16T10:07:39;26.30;93.20
29729;DHT22;20055;51.498;11.960;2023-07-16T10:10:10;26.20;91.10
29729;DHT22;20055;51.498;11.960;2023-07-16T10:12:38;26.30;90.30
29729;DHT22;20055;51.498;11.960;2023-07-16T10:15:05;26.40;90.90
29729;DHT22;20055;51.498;11.960;2023-07-16T10:17:32;26.40;90.00
29729;DHT22;20055;51.498;11.960;2023-07-16T10:25:09;26.80;88.10
29729;DHT22;20055;51.498;11.960;2023-07-16T10:27:36;27.00;87.70
29729;DHT22;20055;51.498;11.960;2023-07-16T10:30:04;27.00;89.30
29729;DHT22;20055;51.498;11.960;2023-07-16T10:32:32;26.80;86.00
29729;DHT22;20055;51.498;11.960;2023-07-16T10:34:59;26.60;87.40
29729;DHT22;20055;51.498;11.960;2023-07-16T10:37:26;26.40;87.70
29729;DHT22;20055;51.498;11.960;2023-07-16T10:39:54;26.30;86.20
29729;DHT22;20055;51.498;11.960;2023-07-16T10:42:22;26.30;87.70
29729;DHT22;20055;51.498;11.960;2023-07-16T10:44:50;26.30;84.80
29729;DHT22;20055;51.498;11.960;2023-07-16T10:47:19;26.30;87.30
29729;DHT22;20055;51.498;11.960;2023-07-16T10:49:49;26.30;83.80
29729;DHT22;20055;51.498;11.960;2023-07-16T10:52:18;26.50;81.60
29729;DHT22;20055;51.498;11.960;2023-07-16T10:54:44;26.60;84.80
29729;DHT22;20055;51.498;11.960;2023-07-16T10:57:11;26.80;83.40
29729;DHT22;20055;51.498;11.960;2023-07-16T10:59:39;27.20;82.20
29729;DHT22;20055;51.498;11.960;2023-07-16T11:02:14;27.10;83.50
29729;DHT22;20055;51.498;11.960;2023-07-16T11:04:41;27.20;82.00
29729;DHT22;20055;51.498;11.960;2023-07-16T11:07:10;27.50;78.20
29729;DHT22;20055;51.498;11.960;2023-07-16T11:09:48;27.50;79.90
29729;DHT22;20055;51.498;11.960;2023-07-16T11:12:17;27.20;79.20
29729;DHT22;20055;51.498;11.960;2023-07-16T11:14:45;27.10;78.10
29729;DHT22;20055;51.498;11.960;2023-07-16T11:17:11;27.30;77.10
29729;DHT22;20055;51.498;11.960;2023-07-16T11:19:38;27.20;77.70
29729;DHT22;20055;51.498;11.960;2023-07-16T11:22:07;27.00;80.10
29729;DHT22;20055;51.498;11.960;2023-07-16T11:24:47;27.10;76.00
29729;DHT22;20055;51.498;11.960;2023-07-16T11:27:14;27.20;75.90
29729;DHT22;20055;51.498;11.960;2023-07-16T11:29:48;27.20;78.30
29729;DHT22;20055;51.498;11.960;2023-07-16T11:32:38;27.10;77.40
29729;DHT22;20055;51.498;11.960;2023-07-16T11:35:05;27.00;78.70
29729;DHT22;20055;51.498;11.960;2023-07-16T11:37:33;26.90;77.40
29729;DHT22;20055;51.498;11.960;2023-07-16T11:40:04;26.80;74.10
29729;DHT22;20055;51.498;11.960;2023-07-16T11:42:39;27.00;78.00
29729;DHT22;20055;51.498;11.960;2023-07-16T11:45:18;27.30;72.40
29729;DHT22;20055;51.498;11.960;2023-07-16T11:47:45;27.30;75.10
29729;DHT22;20055;51.498;11.960;2023-07-16T11:50:12;27.10;78.10
29729;DHT22;20055;51.498;11.960;2023-07-16T11:52:39;27.00;75.20
29729;DHT22;20055;51.498;11.960;2023-07-16T11:55:06;27.30;70.10
29729;DHT22;20055;51.498;11.960;2023-07-16T11:57:33;27.50;70.60
29729;DHT22;20055;51.498;11.960;2023-07-16T12:00:00;27.30;76.20
29729;DHT22;20055;51.498;11.960;2023-07-16T12:02:26;27.60;73.50
29729;DHT22;20055;51.498;11.960;2023-07-16T12:04:53;27.80;72.40
29729;DHT22;20055;51.498;11.960;2023-07-16T12:07:46;27.70;75.70
29729;DHT22;20055;51.498;11.960;2023-07-16T12:10:12;27.50;70.00
29729;DHT22;20055;51.498;11.960;2023-07-16T12:12:38;27.50;73.20
29729;DHT22;20055;51.498;11.960;2023-07-16T12:15:07;27.20;71.70
29729;DHT22;20055;51.498;11.960;2023-07-16T12:17:33;27.20;75.50
29729;DHT22;20055;51.498;11.960;2023-07-16T12:20:00;27.30;69.50
29729;DHT22;20055;51.498;11.960;2023-07-16T12:22:27;27.10;72.60
29729;DHT22;20055;51.498;11.960;2023-07-16T12:24:53;27.30;66.40
29729;DHT22;20055;51.498;11.960;2023-07-16T12:27:20;27.10;69.40
29729;DHT22;20055;51.498;11.960;2023-07-16T12:29:46;27.30;68.80
29729;DHT22;20055;51.498;11.960;2023-07-16T12:32:13;27.40;66.10
29729;DHT22;20055;51.498;11.960;2023-07-16T12:34:40;27.40;67.70
29729;DHT22;20055;51.498;11.960;2023-07-16T12:37:06;27.50;76.70
29729;DHT22;20055;51.498;11.960;2023-07-16T12:39:33;27.60;71.80
29729;DHT22;20055;51.498;11.960;2023-07-16T12:41:59;27.70;70.20
29729;DHT22;20055;51.498;11.960;2023-07-16T12:44:25;27.70;70.30
29729;DHT22;20055;51.498;11.960;2023-07-16T12:46:52;27.30;66.80
29729;DHT22;20055;51.498;11.960;2023-07-16T12:49:19;27.30;68.20
29729;DHT22;20055;51.498;11.960;2023-07-16T12:51:45;27.10;70.90
29729;DHT22;20055;51.498;11.960;2023-07-16T12:54:11;27.40;69.50
29729;DHT22;20055;51.498;11.960;2023-07-16T12:56:37;27.80;62.70
29729;DHT22;20055;51.498;11.960;2023-07-16T12:59:05;27.90;70.30
29729;DHT22;20055;51.498;11.960;2023-07-16T13:01:31;28.10;71.70
29729;DHT22;20055;51.498;11.960;2023-07-16T13:03:57;27.80;70.50
29729;DHT22;20055;51.498;11.960;2023-07-16T13:06:23;27.70;73.40
29729;DHT22;20055;51.498;11.960;2023-07-16T13:08:50;27.50;67.80
29729;DHT22;20055;51.498;11.960;2023-07-16T13:11:16;27.60;69.50
29729;DHT22;20055;51.498;11.960;2023-07-16T13:13:42;27.50;74.00
29729;DHT22;20055;51.498;11.960;2023-07-16T13:16:09;27.60;67.70
29729;DHT22;20055;51.498;11.960;2023-07-16T13:18:36;27.70;71.00
29729;DHT22;20055;51.498;11.960;2023-07-16T13:21:02;27.60;68.40
29729;DHT22;20055;51.498;11.960;2023-07-16T13:23:29;27.60;67.40
29729;DHT22;20055;51.498;11.960;2023-07-16T13:25:55;27.40;70.70
29729;DHT22;20055;51.498;11.960;2023-07-16T13:28:22;27.50;69.50
29729;DHT22;20055;51.498;11.960;2023-07-16T13:30:49;27.70;65.10
29729;DHT22;20055;51.498;11.960;2023-07-16T13:33:16;27.60;66.80
29729;DHT22;20055;51.498;11.960;2023-07-16T13:35:42;27.60;70.10
29729;DHT22;20055;51.498;11.960;2023-07-16T13:38:08;27.50;70.60
29729;DHT22;20055;51.498;11.960;2023-07-16T13:40:34;27.40;71.20
29729;DHT22;20055;51.498;11.960;2023-07-16T13:43:00;27.40;66.10
29729;DHT22;20055;51.498;11.960;2023-07-16T13:45:28;27.60;64.20
29729;DHT22;20055;51.498;11.960;2023-07-16T13:47:54;27.70;62.90
29729;DHT22;20055;51.498;11.960;2023-07-16T13:50:21;27.70;67.80
29729;DHT22;20055;51.498;11.960;2023-07-16T13:52:48;27.60;64.00
29729;DHT22;20055;51.498;11.960;2023-07-16T13:55:15;27.50;66.80
29729;DHT22;20055;51.498;11.960;2023-07-16T13:57:41;27.60;68.20
29729;DHT22;20055;51.498;11.960;2023-07-16T14:00:08;27.70;64.30
29729;DHT22;20055;51.498;11.960;2023-07-16T14:02:37;27.50;67.80
29729;DHT22;20055;51.498;11.960;2023-07-16T14:05:04;27.70;64.50
29729;DHT22;20055;51.498;11.960;2023-07-16T14:07:30;27.60;67.70
29729;DHT22;20055;51.498;11.960;2023-07-16T14:09:56;27.60;67.50
29729;DHT22;20055;51.498;11.960;2023-07-16T14:12:23;27.60;68.40
29729;DHT22;20055;51.498;11.960;2023-07-16T14:14:49;27.70;66.20
29729;DHT22;20055;51.498;11.960;2023-07-16T14:17:15;27.70;67.60
29729;DHT22;20055;51.498;11.960;2023-07-16T14:19:41;27.60;67.20
29729;DHT22;20055;51.498;11.960;2023-07-16T14:22:08;27.40;66.10
29729;DHT22;20055;51.498;11.960;2023-07-16T14:24:37;27.50;67.00
29729;DHT22;20055;51.498;11.960;2023-07-16T14:27:04;27.40;67.90
29729;DHT22;20055;51.498;11.960;2023-07-16T14:29:32;27.50;64.30
29729;DHT22;20055;51.498;11.960;2023-07-16T14:31:58;27.60;66.70
29729;DHT22;20055;51.498;11.960;2023-07-16T14:34:26;27.60;63.90
29729;DHT22;20055;51.498;11.960;2023-07-16T14:36:53;27.30;63.60
29729;DHT22;20055;51.498;11.960;2023-07-16T14:39:19;27.50;62.80
29729;DHT22;20055;51.498;11.960;2023-07-16T14:41:45;27.50;61.70
29729;DHT22;20055;51.498;11.960;2023-07-16T14:44:12;27.50;63.10
29729;DHT22;20055;51.498;11.960;2023-07-16T14:46:38;27.50;60.00
29729;DHT22;20055;51.498;11.960;2023-07-16T14:49:04;27.70;65.30
29729;DHT22;20055;51.498;11.960;2023-07-16T14:51:31;27.70;63.80
29729;DHT22;20055;51.498;11.960;2023-07-16T14:53:57;27.60;65.50
29729;DHT22;20055;51.498;11.960;2023-07-16T14:56:23;27.60;63.10
29729;DHT22;20055;51.498;11.960;2023-07-16T14:58:49;27.40;61.60
29729;DHT22;20055;51.498;11.960;2023-07-16T15:01:16;27.30;66.20
29729;DHT22;20055;51.498;11.960;2023-07-16T15:03:42;27.30;64.10
29729;DHT22;20055;51.498;11.960;2023-07-16T15:06:08;27.00;64.10
29729;DHT22;20055;51.498;11.960;2023-07-16T15:08:35;26.90;66.60
29729;DHT22;20055;51.498;11.960;2023-07-16T15:11:02;27.10;65.00
29729;DHT22;20055;51.498;11.960;2023-07-16T15:13:28;27.30;64.80
29729;DHT22;20055;51.498;11.960;2023-07-16T15:15:55;27.40;67.20
29729;DHT22;20055;51.498;11.960;2023-07-16T15:18:23;27.40;66.80
29729;DHT22;20055;51.498;11.960;2023-07-16T15:20:59;27.50;62.10
29729;DHT22;20055;51.498;11.960;2023-07-16T15:23:26;27.60;63.60
29729;DHT22;20055;51.498;11.960;2023-07-16T15:25:53;27.40;62.70
29729;DHT22;20055;51.498;11.960;2023-07-16T15:28:20;27.10;65.60
29729;DHT22;20055;51.498;11.960;2023-07-16T15:30:46;26.80;65.80